createdAt,value
2023-05-12T04:06:28.264Z,101316.91
2023-05-12T04:12:33.231Z,101327.44
2023-05-12T04:18:37.021Z,101316.06
2023-05-12T04:24:39.349Z,101319.72
2023-05-12T04:30:43.400Z,101320.41
2023-05-12T04:36:46.420Z,101319.28
2023-05-12T04:42:50.287Z,101322.88
2023-05-12T04:48:52.809Z,101318.53
2023-05-12T04:54:56.677Z,101322.31
2023-05-12T05:00:59.211Z,101323.34
2023-05-12T05:07:01.590Z,101331.56
2023-05-12T05:13:05.004Z,101334.94
2023-05-12T05:19:15.627Z,101344.25
2023-05-12T05:25:30.169Z,101337.34
2023-05-12T05:31:32.558Z,101345.41
2023-05-12T05:37:35.151Z,101346.06
2023-05-12T05:43:38.550Z,101359.13
2023-05-12T05:49:41.033Z,101346.22
2023-05-12T05:55:43.808Z,101352.41
2023-05-12T06:01:47.558Z,101361.47
2023-05-12T06:07:53.236Z,101365.88
2023-05-12T06:13:55.799Z,101371.09
2023-05-12T06:19:58.602Z,101373.31
2023-05-12T06:26:00.823Z,101376.50
2023-05-12T06:32:04.620Z,101374.72
2023-05-12T06:38:06.755Z,101387.91
2023-05-12T06:44:13.930Z,101386.69
2023-05-12T06:50:17.862Z,101379.94
2023-05-12T06:56:22.462Z,101380.44
2023-05-12T07:02:25.205Z,101386.72
2023-05-12T07:08:28.065Z,101387.88
2023-05-12T07:14:32.060Z,101382.00
2023-05-12T07:20:34.231Z,101377.78
2023-05-12T07:26:37.581Z,101388.75
2023-05-12T07:32:40.306Z,101383.09
2023-05-12T07:38:44.967Z,101390.25
2023-05-12T07:44:48.506Z,101394.06
2023-05-12T07:50:52.566Z,101384.81
2023-05-12T07:56:57.488Z,101379.50
2023-05-12T08:03:00.513Z,101373.69
2023-05-12T08:09:03.451Z,101374.31
2023-05-12T08:15:09.418Z,101376.03
2023-05-12T08:21:12.964Z,101374.09
